Campo Grande, Argentina
Current Conditions -  °F | °C
As of 6:00 PM on Friday 19 Dec 2014 (Local Time) from SARC Reporting Station
Few Clouds Few Clouds  
Wind Chill: 91°   Ceiling: Unl
Heat Index: 94°   Visibility: 6mi
Dew Point: 66°   Wind: 8mph
Humidity: 43%   Direction: 30°NNE
Pressure: 29.59"   Gusts: NA
Location:  27.52°S, 58.3°W
Report Text: SARC 192100Z 03007KT 010V070 9000 FEW025 33/19 Q1002
Loading
Personal Weather Stations






























Interactive Weather Map New forecast layout! Learn more

10-Day Weather Forecast

Advertisements
Track Severe Weather on mobile